Time;durP1;ratioP1;P1;durP2;ratioP2;P2;SDS_P1;SDS_P2;PMS_P1;PMS_P2;Temp;Humidity;BMP_temperature;BMP_pressure;BME280_temperature;BME280_humidity;BME280_pressure;Samples;Min_cycle;Max_cycle;Signal;HPM_P1;HPM_P2
2023/01/10 00:02:08;;;;;;;;;;;;;;;;;;5177356;27;19923;-72
2023/01/10 00:04:34;;;;;;;;;;;;;;;;;;5175099;27;19922;-72
2023/01/10 00:07:00;;;;;;;;;;;;;;;;;;5167377;27;19923;-72
2023/01/10 00:09:26;;;;;;;;;;;;;;;;;;5175500;27;20124;-76
2023/01/10 00:14:36;;;;;;;;;;;;;;;;;;5173286;27;20283;-72
2023/01/10 00:17:02;;;;;;;;;;;;;;;;;;5137461;27;20018;-73
2023/01/10 00:19:28;;;;;;;;;;;;;;;;;;5173786;27;19923;-73
2023/01/10 00:21:56;;;;;;;;;;;;;;;;;;5154672;27;19991;-72
2023/01/10 00:24:22;;;;;;;;;;;;;;;;;;5172456;27;20378;-71
2023/01/10 00:26:50;;;;;;;;;;;;;;;;;;5163877;27;19930;-71
2023/01/10 00:29:15;;;;;;;;;;;;;;;;;;5166458;27;19935;-72
2023/01/10 00:31:41;;;;;;;;;;;;;;;;;;5174445;27;20625;-73
2023/01/10 00:34:07;;;;;;;;;;;;;;;;;;5175724;27;19929;-73
2023/01/10 00:36:33;;;;;;;;;;;;;;;;;;5183759;27;19923;-70
2023/01/10 00:38:59;;;;;;;;;;;;;;;;;;5177781;27;19970;-72
2023/01/10 00:44:10;;;;;;;;;;;;;;;;;;5157184;27;20412;-72
2023/01/10 00:46:36;;;;;;;;;;;;;;;;;;5154325;27;19922;-72
2023/01/10 00:49:05;;;;;;;;;;;;;;;;;;5167644;27;20303;-71
2023/01/10 00:51:31;;;;;;;;;;;;;;;;;;5169536;27;19933;-72
2023/01/10 00:53:57;;;;;;;;;;;;;;;;;;5172173;27;20295;-71
2023/01/10 00:56:23;;;;;;;;;;;;;;;;;;5166896;27;20375;-72
2023/01/10 00:58:49;;;;;;;;;;;;;;;;;;5172727;27;19922;-72
2023/01/10 01:01:15;;;;;;;;;;;;;;;;;;5171379;27;19985;-72
2023/01/10 01:03:41;;;;;;;;;;;;;;;;;;5157012;27;20009;-73
2023/01/10 01:06:07;;;;;;;;;;;;;;;;;;5165397;27;20062;-72
2023/01/10 01:08:33;;;;;;;;;;;;;;;;;;5171117;27;20391;-72
2023/01/10 01:10:58;;;;;;;;;;;;;;;;;;5174909;27;19974;-72
2023/01/10 01:13:24;;;;;;;;;;;;;;;;;;5166750;27;19923;-72
2023/01/10 01:15:50;;;;;;;;;;;;;;;;;;5165492;27;20405;-72
2023/01/10 01:18:16;;;;;;;;;;;;;;;;;;5172619;27;19930;-71
2023/01/10 01:20:44;;;;;;;;;;;;;;;;;;5175839;27;19923;-72
2023/01/10 01:23:10;;;;;;;;;;;;;;;;;;5172082;27;20383;-72
2023/01/10 01:25:36;;;;;;;;;;;;;;;;;;5168445;27;19973;-73
2023/01/10 01:28:02;;;;;;;;;;;;;;;;;;5174659;27;19927;-73
2023/01/10 01:30:28;;;;;;;;;;;;;;;;;;5149413;27;19926;-73
2023/01/10 01:32:54;;;;;;;;;;;;;;;;;;5177886;27;19967;-74
2023/01/10 01:35:20;;;;;;;;;;;;;;;;;;5170314;27;19923;-73
2023/01/10 01:37:45;;;;;;;;;;;;;;;;;;5166172;27;19927;-73
2023/01/10 01:40:11;;;;;;;;;;;;;;;;;;5153566;27;19926;-72
2023/01/10 01:42:37;;;;;;;;;;;;;;;;;;5154500;27;20283;-73
2023/01/10 01:45:03;;;;;;;;;;;;;;;;;;5142009;27;19930;-72
2023/01/10 01:47:29;;;;;;;;;;;;;;;;;;5167570;27;20405;-73
2023/01/10 01:49:55;;;;;;;;;;;;;;;;;;5169269;27;20352;-72
2023/01/10 01:52:21;;;;;;;;;;;;;;;;;;5155130;27;20018;-72
2023/01/10 01:54:47;;;;;;;;;;;;;;;;;;5172183;27;19974;-72
2023/01/10 01:57:13;;;;;;;;;;;;;;;;;;5155069;27;20002;-72
2023/01/10 01:59:39;;;;;;;;;;;;;;;;;;5148082;27;19923;-73
2023/01/10 02:02:05;;;;;;;;;;;;;;;;;;5169112;27;20002;-72
2023/01/10 02:04:30;;;;;;;;;;;;;;;;;;5147571;27;19975;-73
2023/01/10 02:06:56;;;;;;;;;;;;;;;;;;5166736;27;19979;-72
2023/01/10 02:09:22;;;;;;;;;;;;;;;;;;5159486;27;19927;-72
2023/01/10 02:11:48;;;;;;;;;;;;;;;;;;5158225;27;19974;-72
2023/01/10 02:14:14;;;;;;;;;;;;;;;;;;5154214;27;20332;-72
2023/01/10 02:16:40;;;;;;;;;;;;;;;;;;5148095;27;19976;-72
2023/01/10 02:19:06;;;;;;;;;;;;;;;;;;5152050;27;19923;-72
2023/01/10 02:21:32;;;;;;;;;;;;;;;;;;5150615;27;20371;-72
2023/01/10 02:23:58;;;;;;;;;;;;;;;;;;5142793;27;19923;-71
2023/01/10 02:26:24;;;;;;;;;;;;;;;;;;5150289;27;19932;-71
2023/01/10 02:28:50;;;;;;;;;;;;;;;;;;5152767;27;20025;-72
2023/01/10 02:31:16;;;;;;;;;;;;;;;;;;5152371;27;19923;-73
2023/01/10 02:33:42;;;;;;;;;;;;;;;;;;5149261;27;19925;-73
2023/01/10 02:36:08;;;;;;;;;;;;;;;;;;5148024;27;19923;-72
2023/01/10 02:38:33;;;;;;;;;;;;;;;;;;5142128;27;20013;-72
2023/01/10 02:40:59;;;;;;;;;;;;;;;;;;5141985;27;19923;-72
2023/01/10 02:43:25;;;;;;;;;;;;;;;;;;5147278;27;20276;-72
2023/01/10 02:45:51;;;;;;;;;;;;;;;;;;5132223;27;19924;-72
2023/01/10 02:48:17;;;;;;;;;;;;;;;;;;5149699;27;19923;-72
2023/01/10 02:50:43;;;;;;;;;;;;;;;;;;5149127;27;20013;-73
2023/01/10 02:53:09;;;;;;;;;;;;;;;;;;5152248;27;20359;-72
2023/01/10 02:55:35;;;;;;;;;;;;;;;;;;5148454;27;19931;-72
2023/01/10 02:58:01;;;;;;;;;;;;;;;;;;5151825;27;19927;-72
2023/01/10 03:00:27;;;;;;;;;;;;;;;;;;5145261;27;20308;-73
2023/01/10 03:02:53;;;;;;;;;;;;;;;;;;5147441;27;19930;-72
2023/01/10 03:05:19;;;;;;;;;;;;;;;;;;5169475;27;19997;-72
2023/01/10 03:07:45;;;;;;;;;;;;;;;;;;5150977;27;19923;-72
2023/01/10 03:10:11;;;;;;;;;;;;;;;;;;5161101;27;19923;-72
2023/01/10 03:12:37;;;;;;;;;;;;;;;;;;5159571;27;19931;-72
2023/01/10 03:15:03;;;;;;;;;;;;;;;;;;5167826;27;19946;-72
2023/01/10 03:17:29;;;;;;;;;;;;;;;;;;5170464;27;20454;-72
2023/01/10 03:19:55;;;;;;;;;;;;;;;;;;5169536;27;19975;-73
2023/01/10 03:22:21;;;;;;;;;;;;;;;;;;5150253;27;19926;-73
2023/01/10 03:24:47;;;;;;;;;;;;;;;;;;5170986;27;19981;-72
2023/01/10 03:27:13;;;;;;;;;;;;;;;;;;5166442;27;19991;-72
2023/01/10 03:29:39;;;;;;;;;;;;;;;;;;5158150;27;19923;-73
2023/01/10 03:32:04;;;;;;;;;;;;;;;;;;5155163;27;19930;-72
2023/01/10 03:34:30;;;;;;;;;;;;;;;;;;5182613;27;19923;-72
2023/01/10 03:36:56;;;;;;;;;;;;;;;;;;5178030;27;20074;-73
2023/01/10 03:39:22;;;;;;;;;;;;;;;;;;5176382;27;20017;-71
2023/01/10 03:41:48;;;;;;;;;;;;;;;;;;5171015;27;19929;-72
2023/01/10 03:46:58;;;;;;;;;;;;;;;;;;5176485;27;20323;-73
2023/01/10 03:49:24;;;;;;;;;;;;;;;;;;5157600;27;19984;-72
2023/01/10 03:51:50;;;;;;;;;;;;;;;;;;5173570;27;19975;-74
2023/01/10 03:54:16;;;;;;;;;;;;;;;;;;5179912;27;19923;-74
2023/01/10 03:56:42;;;;;;;;;;;;;;;;;;5177462;27;19931;-74
2023/01/10 03:59:08;;;;;;;;;;;;;;;;;;5175234;27;19931;-73
2023/01/10 04:01:34;;;;;;;;;;;;;;;;;;5169175;27;20381;-73
2023/01/10 04:04:00;;;;;;;;;;;;;;;;;;5165503;27;19968;-73
2023/01/10 04:06:26;;;;;;;;;;;;;;;;;;5174218;27;19967;-73
2023/01/10 04:08:52;;;;;;;;;;;;;;;;;;5178913;27;19923;-73
2023/01/10 04:11:18;;;;;;;;;;;;;;;;;;5174927;27;20391;-74
2023/01/10 04:13:44;;;;;;;;;;;;;;;;;;5172390;27;19934;-74
2023/01/10 04:16:10;;;;;;;;;;;;;;;;;;5160754;27;20026;-73
2023/01/10 04:18:36;;;;;;;;;;;;;;;;;;5176868;27;20037;-73
2023/01/10 04:21:01;;;;;;;;;;;;;;;;;;5157153;27;20429;-73
2023/01/10 04:23:27;;;;;;;;;;;;;;;;;;5138194;27;19922;-72
2023/01/10 04:25:53;;;;;;;;;;;;;;;;;;5157990;27;19923;-73
2023/01/10 04:28:19;;;;;;;;;;;;;;;;;;5175092;27;19930;-73
2023/01/10 04:30:45;;;;;;;;;;;;;;;;;;5175142;27;19926;-73
2023/01/10 04:33:11;;;;;;;;;;;;;;;;;;5173613;27;20719;-73
2023/01/10 04:35:37;;;;;;;;;;;;;;;;;;5176643;27;20403;-72
2023/01/10 04:38:03;;;;;;;;;;;;;;;;;;5156762;27;19922;-73
2023/01/10 04:40:29;;;;;;;;;;;;;;;;;;5174762;27;19927;-73
2023/01/10 04:42:55;;;;;;;;;;;;;;;;;;5153565;27;19930;-73
2023/01/10 04:45:21;;;;;;;;;;;;;;;;;;5173729;27;19919;-72
2023/01/10 04:47:47;;;;;;;;;;;;;;;;;;5158664;27;19946;-73
2023/01/10 04:50:12;;;;;;;;;;;;;;;;;;5156663;27;20500;-72
2023/01/10 04:52:39;;;;;;;;;;;;;;;;;;5175866;27;19968;-73
2023/01/10 04:55:05;;;;;;;;;;;;;;;;;;5150551;27;20452;-73
2023/01/10 04:57:31;;;;;;;;;;;;;;;;;;5166987;27;19927;-73
2023/01/10 04:59:57;;;;;;;;;;;;;;;;;;5148674;27;19930;-73
2023/01/10 05:02:23;;;;;;;;;;;;;;;;;;5133448;27;19923;-73
2023/01/10 05:04:49;;;;;;;;;;;;;;;;;;5174385;27;19953;-73
2023/01/10 05:07:15;;;;;;;;;;;;;;;;;;5182663;27;19927;-74
2023/01/10 05:09:41;;;;;;;;;;;;;;;;;;5197783;27;19930;-73
2023/01/10 05:12:07;;;;;;;;;;;;;;;;;;5169318;27;19922;-74
2023/01/10 05:14:33;;;;;;;;;;;;;;;;;;5166320;27;19927;-75
2023/01/10 05:16:59;;;;;;;;;;;;;;;;;;5175150;27;19974;-74
2023/01/10 05:19:25;;;;;;;;;;;;;;;;;;5153897;27;19923;-74
2023/01/10 05:21:51;;;;;;;;;;;;;;;;;;5173679;27;19922;-75
2023/01/10 05:24:17;;;;;;;;;;;;;;;;;;5152329;27;19926;-74
2023/01/10 05:26:42;;;;;;;;;;;;;;;;;;5171414;27;20025;-74
2023/01/10 05:29:08;;;;;;;;;;;;;;;;;;5151716;27;20005;-73
2023/01/10 05:31:34;;;;;;;;;;;;;;;;;;5170127;27;20415;-74
2023/01/10 05:34:00;;;;;;;;;;;;;;;;;;5166785;27;20010;-74
2023/01/10 05:36:26;;;;;;;;;;;;;;;;;;5172671;27;19929;-74
2023/01/10 05:38:52;;;;;;;;;;;;;;;;;;5162063;27;19966;-74
2023/01/10 05:41:18;;;;;;;;;;;;;;;;;;5158382;27;19927;-74
2023/01/10 05:43:44;;;;;;;;;;;;;;;;;;5167137;27;20290;-73
2023/01/10 05:46:10;;;;;;;;;;;;;;;;;;5164654;27;19922;-73
2023/01/10 05:48:36;;;;;;;;;;;;;;;;;;5174480;27;19922;-73
2023/01/10 05:51:02;;;;;;;;;;;;;;;;;;5174463;27;20299;-74
2023/01/10 05:53:28;;;;;;;;;;;;;;;;;;5165931;27;19923;-74
2023/01/10 05:55:54;;;;;;;;;;;;;;;;;;5167941;27;20355;-74
2023/01/10 05:58:20;;;;;;;;;;;;;;;;;;5165697;27;19923;-74
2023/01/10 06:00:46;;;;;;;;;;;;;;;;;;5169091;27;20455;-74
2023/01/10 06:03:12;;;;;;;;;;;;;;;;;;5143274;27;19930;-74
2023/01/10 06:05:38;;;;;;;;;;;;;;;;;;5166713;27;19926;-74
2023/01/10 06:08:04;;;;;;;;;;;;;;;;;;5149827;27;19962;-74
2023/01/10 06:10:30;;;;;;;;;;;;;;;;;;5146357;27;20026;-74
2023/01/10 06:12:56;;;;;;;;;;;;;;;;;;5167897;27;20375;-73
2023/01/10 06:15:22;;;;;;;;;;;;;;;;;;5163824;27;20022;-73
2023/01/10 06:17:48;;;;;;;;;;;;;;;;;;5158061;27;19949;-74
2023/01/10 06:20:13;;;;;;;;;;;;;;;;;;5170787;27;20501;-73
2023/01/10 06:22:40;;;;;;;;;;;;;;;;;;5167022;27;19923;-73
2023/01/10 06:25:06;;;;;;;;;;;;;;;;;;5144683;27;19974;-73
2023/01/10 06:27:32;;;;;;;;;;;;;;;;;;5170290;27;20298;-74
2023/01/10 06:30:00;;;;;;;;;;;;;;;;;;5172964;27;19923;-73
2023/01/10 06:32:26;;;;;;;;;;;;;;;;;;5170429;27;19927;-73
2023/01/10 06:34:52;;;;;;;;;;;;;;;;;;5167198;27;19941;-73
2023/01/10 06:37:18;;;;;;;;;;;;;;;;;;5175073;27;19926;-74
2023/01/10 06:39:45;;;;;;;;;;;;;;;;;;5176348;27;20371;-71
2023/01/10 06:42:11;;;;;;;;;;;;;;;;;;5173841;27;19926;-72
2023/01/10 06:44:37;;;;;;;;;;;;;;;;;;5169697;27;19930;-74
2023/01/10 06:47:03;;;;;;;;;;;;;;;;;;5171140;27;19923;-72
2023/01/10 06:49:29;;;;;;;;;;;;;;;;;;5152337;27;19962;-72
2023/01/10 06:51:55;;;;;;;;;;;;;;;;;;5169849;27;19923;-73
2023/01/10 06:54:21;;;;;;;;;;;;;;;;;;5170372;27;19923;-72
2023/01/10 06:56:47;;;;;;;;;;;;;;;;;;5176534;27;19930;-72
2023/01/10 06:59:13;;;;;;;;;;;;;;;;;;5177195;27;20009;-73
2023/01/10 07:01:39;;;;;;;;;;;;;;;;;;5168634;27;20030;-72
2023/01/10 07:04:05;;;;;;;;;;;;;;;;;;5164139;27;20046;-72
2023/01/10 07:06:31;;;;;;;;;;;;;;;;;;5165485;27;19977;-71
2023/01/10 07:08:57;;;;;;;;;;;;;;;;;;5170468;27;19923;-72
2023/01/10 07:11:23;;;;;;;;;;;;;;;;;;5178841;27;19923;-72
2023/01/10 07:13:50;;;;;;;;;;;;;;;;;;5169562;27;19923;-73
2023/01/10 07:16:16;;;;;;;;;;;;;;;;;;5174583;27;19922;-73
2023/01/10 07:18:42;;;;;;;;;;;;;;;;;;5180992;27;20059;-72
2023/01/10 07:21:08;;;;;;;;;;;;;;;;;;5175224;27;20051;-72
2023/01/10 07:23:33;;;;;;;;;;;;;;;;;;5163011;27;19931;-72
2023/01/10 07:25:59;;;;;;;;;;;;;;;;;;5155555;27;20005;-72
2023/01/10 07:28:25;;;;;;;;;;;;;;;;;;5149062;27;20006;-72
2023/01/10 07:30:51;;;;;;;;;;;;;;;;;;5161648;27;20294;-72
2023/01/10 07:33:17;;;;;;;;;;;;;;;;;;5174708;27;20002;-72
2023/01/10 07:35:43;;;;;;;;;;;;;;;;;;5176711;27;19977;-72
2023/01/10 07:38:09;;;;;;;;;;;;;;;;;;5157314;27;19982;-71
2023/01/10 07:40:35;;;;;;;;;;;;;;;;;;5162792;27;19930;-71
2023/01/10 07:43:01;;;;;;;;;;;;;;;;;;5159512;27;19926;-71
2023/01/10 07:45:27;;;;;;;;;;;;;;;;;;5150086;27;19923;-72
2023/01/10 07:47:53;;;;;;;;;;;;;;;;;;5175065;27;19944;-72
2023/01/10 07:50:18;;;;;;;;;;;;;;;;;;5151076;27;19953;-72
2023/01/10 07:52:44;;;;;;;;;;;;;;;;;;5167875;27;20310;-72
2023/01/10 07:55:10;;;;;;;;;;;;;;;;;;5151790;27;19922;-72
2023/01/10 07:57:36;;;;;;;;;;;;;;;;;;5166285;27;20009;-72
2023/01/10 08:00:02;;;;;;;;;;;;;;;;;;5168414;27;19990;-71
2023/01/10 08:02:28;;;;;;;;;;;;;;;;;;5147775;27;19922;-73
2023/01/10 08:04:54;;;;;;;;;;;;;;;;;;5176010;27;19929;-71
2023/01/10 08:07:20;;;;;;;;;;;;;;;;;;5164903;27;19923;-72
2023/01/10 08:09:46;;;;;;;;;;;;;;;;;;5179669;27;19919;-73
2023/01/10 08:12:12;;;;;;;;;;;;;;;;;;5187270;27;20288;-71
2023/01/10 08:14:38;;;;;;;;;;;;;;;;;;5158478;27;20279;-73
2023/01/10 08:17:04;;;;;;;;;;;;;;;;;;5160033;27;19930;-72
2023/01/10 08:19:30;;;;;;;;;;;;;;;;;;5148327;27;19923;-71
2023/01/10 08:21:56;;;;;;;;;;;;;;;;;;5161061;27;20295;-71
2023/01/10 08:24:22;;;;;;;;;;;;;;;;;;5165487;27;19923;-71
2023/01/10 08:26:48;;;;;;;;;;;;;;;;;;5145309;27;20360;-71
2023/01/10 08:29:14;;;;;;;;;;;;;;;;;;5168939;27;20376;-72
2023/01/10 08:31:40;;;;;;;;;;;;;;;;;;5163777;27;19942;-71
2023/01/10 08:34:06;;;;;;;;;;;;;;;;;;5164198;27;20286;-72
2023/01/10 08:36:32;;;;;;;;;;;;;;;;;;5169985;27;19923;-72
2023/01/10 08:38:58;;;;;;;;;;;;;;;;;;5159477;27;20299;-72
2023/01/10 08:41:24;;;;;;;;;;;;;;;;;;5164415;27;20022;-71
2023/01/10 08:43:50;;;;;;;;;;;;;;;;;;5172617;27;19929;-71
2023/01/10 08:46:16;;;;;;;;;;;;;;;;;;5136139;27;20303;-71
2023/01/10 08:48:42;;;;;;;;;;;;;;;;;;5152710;27;19923;-71
2023/01/10 08:51:08;;;;;;;;;;;;;;;;;;5173013;27;19934;-70
2023/01/10 08:53:34;;;;;;;;;;;;;;;;;;5170042;27;20397;-72
2023/01/10 08:56:00;;;;;;;;;;;;;;;;;;5142672;27;19927;-70
2023/01/10 08:58:26;;;;;;;;;;;;;;;;;;5164866;27;20371;-70
2023/01/10 09:00:52;;;;;;;;;;;;;;;;;;5155480;27;20352;-70
2023/01/10 09:03:18;;;;;;;;;;;;;;;;;;5153156;27;19927;-70
2023/01/10 09:05:44;;;;;;;;;;;;;;;;;;5167543;27;20290;-71
2023/01/10 09:08:10;;;;;;;;;;;;;;;;;;5167019;27;19927;-71
2023/01/10 09:10:35;;;;;;;;;;;;;;;;;;5175760;27;19975;-71
2023/01/10 09:13:03;;;;;;;;;;;;;;;;;;5172550;27;20536;-71
2023/01/10 09:15:29;;;;;;;;;;;;;;;;;;5164172;27;19927;-71
2023/01/10 09:17:55;;;;;;;;;;;;;;;;;;5164658;27;20013;-72
2023/01/10 09:20:21;;;;;;;;;;;;;;;;;;5169879;27;19929;-71
2023/01/10 09:22:47;;;;;;;;;;;;;;;;;;5153284;27;20051;-72
2023/01/10 09:25:13;;;;;;;;;;;;;;;;;;5168787;27;19923;-72
2023/01/10 09:27:39;;;;;;;;;;;;;;;;;;5163786;27;19930;-71
2023/01/10 09:30:05;;;;;;;;;;;;;;;;;;5164862;27;19923;-71
2023/01/10 09:32:31;;;;;;;;;;;;;;;;;;5167212;27;20022;-72
2023/01/10 09:34:57;;;;;;;;;;;;;;;;;;5170252;27;20013;-72
2023/01/10 09:37:22;;;;;;;;;;;;;;;;;;5157999;27;19998;-71
2023/01/10 09:39:48;;;;;;;;;;;;;;;;;;5152943;27;19931;-71
2023/01/10 09:42:14;;;;;;;;;;;;;;;;;;5162551;27;19923;-72
2023/01/10 09:44:41;;;;;;;;;;;;;;;;;;5165572;27;20264;-72
2023/01/10 09:47:06;;;;;;;;;;;;;;;;;;5175797;27;20026;-72
2023/01/10 09:49:32;;;;;;;;;;;;;;;;;;5150071;27;19998;-71
2023/01/10 09:51:58;;;;;;;;;;;;;;;;;;5138979;27;20014;-71
2023/01/10 09:54:24;;;;;;;;;;;;;;;;;;5160743;27;20001;-72
2023/01/10 09:56:50;;;;;;;;;;;;;;;;;;5154792;27;19922;-72
2023/01/10 09:59:16;;;;;;;;;;;;;;;;;;5145841;27;19998;-71
2023/01/10 10:01:42;;;;;;;;;;;;;;;;;;5162099;27;19922;-74
2023/01/10 10:04:08;;;;;;;;;;;;;;;;;;5165361;27;19930;-73
2023/01/10 10:06:34;;;;;;;;;;;;;;;;;;5159991;27;19923;-72
2023/01/10 10:09:00;;;;;;;;;;;;;;;;;;5168844;27;20038;-72
2023/01/10 10:11:26;;;;;;;;;;;;;;;;;;5162637;27;19964;-72
2023/01/10 10:13:53;;;;;;;;;;;;;;;;;;5163805;27;19927;-72
2023/01/10 10:16:19;;;;;;;;;;;;;;;;;;5166324;27;20017;-73
2023/01/10 10:18:45;;;;;;;;;;;;;;;;;;5162902;27;20063;-72
2023/01/10 10:21:11;;;;;;;;;;;;;;;;;;5172914;27;19934;-71
2023/01/10 10:23:37;;;;;;;;;;;;;;;;;;5164996;27;19930;-71
2023/01/10 10:26:02;;;;;;;;;;;;;;;;;;5167968;27;20446;-72
2023/01/10 10:28:30;;;;;;;;;;;;;;;;;;5174971;27;19987;-72
2023/01/10 10:30:56;;;;;;;;;;;;;;;;;;5164056;27;19922;-72
2023/01/10 10:33:22;;;;;;;;;;;;;;;;;;5169856;27;19979;-72
2023/01/10 10:35:48;;;;;;;;;;;;;;;;;;5160859;27;19930;-73
2023/01/10 10:38:14;;;;;;;;;;;;;;;;;;5164984;27;19923;-72
2023/01/10 10:40:40;;;;;;;;;;;;;;;;;;5173287;27;19923;-72
2023/01/10 10:43:06;;;;;;;;;;;;;;;;;;5161379;27;19980;-72
2023/01/10 10:45:32;;;;;;;;;;;;;;;;;;5159437;27;19934;-72
2023/01/10 10:47:59;;;;;;;;;;;;;;;;;;5164042;27;20358;-72
2023/01/10 10:50:25;;;;;;;;;;;;;;;;;;5164908;27;19930;-72
2023/01/10 10:52:51;;;;;;;;;;;;;;;;;;5163084;27;19930;-72
2023/01/10 10:55:17;;;;;;;;;;;;;;;;;;5166018;27;20059;-71
2023/01/10 10:57:42;;;;;;;;;;;;;;;;;;5166022;27;20387;-71
2023/01/10 11:00:08;;;;;;;;;;;;;;;;;;5161584;27;19923;-71
2023/01/10 11:02:34;;;;;;;;;;;;;;;;;;5167313;27;19923;-72
2023/01/10 11:05:00;;;;;;;;;;;;;;;;;;5131858;27;19922;-71
2023/01/10 11:07:26;;;;;;;;;;;;;;;;;;5148013;27;19923;-71
2023/01/10 11:09:56;;;;;;;;;;;;;;;;;;5161965;27;19930;-72
2023/01/10 11:12:22;;;;;;;;;;;;;;;;;;5142108;27;19919;-71
2023/01/10 11:14:48;;;;;;;;;;;;;;;;;;5159994;27;19923;-72
2023/01/10 11:17:14;;;;;;;;;;;;;;;;;;5144451;27;19930;-72
2023/01/10 11:19:40;;;;;;;;;;;;;;;;;;5158420;27;19923;-72
2023/01/10 11:22:06;;;;;;;;;;;;;;;;;;5154827;27;19927;-72
2023/01/10 11:24:32;;;;;;;;;;;;;;;;;;5139692;27;20273;-72
2023/01/10 11:26:58;;;;;;;;;;;;;;;;;;5168164;27;19966;-72
2023/01/10 11:29:23;;;;;;;;;;;;;;;;;;5168313;27;19930;-72
2023/01/10 11:31:49;;;;;;;;;;;;;;;;;;5166893;27;20282;-72
2023/01/10 11:34:15;;;;;;;;;;;;;;;;;;5150341;27;20401;-72
2023/01/10 11:36:41;;;;;;;;;;;;;;;;;;5157304;27;19975;-72
2023/01/10 11:39:07;;;;;;;;;;;;;;;;;;5171786;27;19930;-71
2023/01/10 11:41:33;;;;;;;;;;;;;;;;;;5164992;27;19923;-72
2023/01/10 11:43:59;;;;;;;;;;;;;;;;;;5167315;27;19927;-72
2023/01/10 11:46:25;;;;;;;;;;;;;;;;;;5168709;27;20005;-71
2023/01/10 11:48:51;;;;;;;;;;;;;;;;;;5166573;27;19923;-71
2023/01/10 11:51:17;;;;;;;;;;;;;;;;;;5175417;27;19922;-72
2023/01/10 11:53:43;;;;;;;;;;;;;;;;;;5175423;27;19927;-70
2023/01/10 11:56:09;;;;;;;;;;;;;;;;;;5170795;27;19966;-71
2023/01/10 11:58:35;;;;;;;;;;;;;;;;;;5170741;27;20014;-71
2023/01/10 12:01:01;;;;;;;;;;;;;;;;;;5175265;27;20286;-71
2023/01/10 12:03:28;;;;;;;;;;;;;;;;;;5176574;27;19962;-71
2023/01/10 12:05:54;;;;;;;;;;;;;;;;;;5166740;27;20738;-71
2023/01/10 12:08:20;;;;;;;;;;;;;;;;;;5158797;27;19926;-71
2023/01/10 12:10:47;;;;;;;;;;;;;;;;;;5148822;27;20411;-71
2023/01/10 12:13:13;;;;;;;;;;;;;;;;;;5160940;27;20333;-71
2023/01/10 12:15:39;;;;;;;;;;;;;;;;;;5160209;27;19964;-71
2023/01/10 12:18:05;;;;;;;;;;;;;;;;;;5173316;27;20017;-71
2023/01/10 12:20:31;;;;;;;;;;;;;;;;;;5154580;27;20013;-70
2023/01/10 12:22:57;;;;;;;;;;;;;;;;;;5164984;27;20283;-70
2023/01/10 12:25:23;;;;;;;;;;;;;;;;;;5175263;27;19930;-71
2023/01/10 12:27:49;;;;;;;;;;;;;;;;;;5175282;27;19923;-71
2023/01/10 12:30:15;;;;;;;;;;;;;;;;;;5171200;27;19934;-71
2023/01/10 12:32:41;;;;;;;;;;;;;;;;;;5171806;27;20425;-71
2023/01/10 12:35:07;;;;;;;;;;;;;;;;;;5164052;27;19929;-71
2023/01/10 12:37:33;;;;;;;;;;;;;;;;;;5152691;27;20025;-72
2023/01/10 12:39:59;;;;;;;;;;;;;;;;;;5145901;27;20069;-71
2023/01/10 12:45:10;;;;;;;;;;;;;;;;;;5155384;27;19923;-72
2023/01/10 12:47:36;;;;;;;;;;;;;;;;;;5158576;27;20307;-71
2023/01/10 12:50:01;;;;;;;;;;;;;;;;;;5166464;27;20491;-71
2023/01/10 12:52:27;;;;;;;;;;;;;;;;;;5174294;27;19955;-71
2023/01/10 12:54:53;;;;;;;;;;;;;;;;;;5164073;27;19945;-71
2023/01/10 12:57:19;;;;;;;;;;;;;;;;;;5176139;27;20002;-71
2023/01/10 12:59:45;;;;;;;;;;;;;;;;;;5146711;27;19975;-71
2023/01/10 13:02:11;;;;;;;;;;;;;;;;;;5153347;27;20017;-70
2023/01/10 13:04:37;;;;;;;;;;;;;;;;;;5164861;27;20008;-71
2023/01/10 13:07:03;;;;;;;;;;;;;;;;;;5165957;27;20002;-71
2023/01/10 13:09:29;;;;;;;;;;;;;;;;;;5156333;27;19922;-70
2023/01/10 13:11:55;;;;;;;;;;;;;;;;;;5173436;27;19983;-71
2023/01/10 13:14:21;;;;;;;;;;;;;;;;;;5166992;27;19931;-71
2023/01/10 13:16:47;;;;;;;;;;;;;;;;;;5147343;27;19930;-71
2023/01/10 13:19:13;;;;;;;;;;;;;;;;;;5165977;27;20716;-72
2023/01/10 13:21:39;;;;;;;;;;;;;;;;;;5169603;27;19922;-69
2023/01/10 13:24:05;;;;;;;;;;;;;;;;;;5170584;27;19978;-71
2023/01/10 13:26:31;;;;;;;;;;;;;;;;;;5170309;27;19962;-71
2023/01/10 13:28:57;;;;;;;;;;;;;;;;;;5167620;27;19964;-72
2023/01/10 13:31:23;;;;;;;;;;;;;;;;;;5171041;27;19923;-71
2023/01/10 13:33:49;;;;;;;;;;;;;;;;;;5163940;27;19979;-71
2023/01/10 13:36:15;;;;;;;;;;;;;;;;;;5136108;27;20387;-71
2023/01/10 13:38:41;;;;;;;;;;;;;;;;;;5142222;27;19922;-71
2023/01/10 13:41:07;;;;;;;;;;;;;;;;;;5165031;27;20014;-70
2023/01/10 13:43:36;;;;;;;;;;;;;;;;;;5173210;27;19986;-71
2023/01/10 13:46:02;;;;;;;;;;;;;;;;;;5159094;27;19931;-71
2023/01/10 13:48:28;;;;;;;;;;;;;;;;;;5142989;27;19923;-71
2023/01/10 13:50:53;;;;;;;;;;;;;;;;;;5173988;27;20295;-71
2023/01/10 13:53:20;;;;;;;;;;;;;;;;;;5158374;27;19946;-71
2023/01/10 13:55:52;;;;;;;;;;;;;;;;;;5174051;27;19923;-71
2023/01/10 14:03:47;;;;;;;;;;;;;;;;;;5166898;27;19926;-71
2023/01/10 14:06:13;;;;;;;;;;;;;;;;;;5172470;27;19923;-72
2023/01/10 14:08:39;;;;;;;;;;;;;;;;;;5165151;27;19931;-71
2023/01/10 14:11:05;;;;;;;;;;;;;;;;;;5150616;27;19935;-71
2023/01/10 14:13:31;;;;;;;;;;;;;;;;;;5176859;27;19965;-71
2023/01/10 14:15:57;;;;;;;;;;;;;;;;;;5165417;27;20386;-71
2023/01/10 14:18:23;;;;;;;;;;;;;;;;;;5171041;27;19934;-71
2023/01/10 14:20:49;;;;;;;;;;;;;;;;;;5172853;27;19923;-71
2023/01/10 14:23:14;;;;;;;;;;;;;;;;;;5169696;27;19923;-70
2023/01/10 14:25:41;;;;;;;;;;;;;;;;;;5167444;27;19923;-71
2023/01/10 14:28:06;;;;;;;;;;;;;;;;;;5171718;27;19923;-71
2023/01/10 14:30:32;;;;;;;;;;;;;;;;;;5174988;27;19960;-72
2023/01/10 14:32:58;;;;;;;;;;;;;;;;;;5169705;27;20321;-71
2023/01/10 14:35:24;;;;;;;;;;;;;;;;;;5175794;27;19962;-71
2023/01/10 14:37:52;;;;;;;;;;;;;;;;;;5173381;27;19986;-70
2023/01/10 14:40:18;;;;;;;;;;;;;;;;;;5160579;27;20004;-70
2023/01/10 14:42:44;;;;;;;;;;;;;;;;;;5167432;27;19938;-72
2023/01/10 14:45:09;;;;;;;;;;;;;;;;;;5177857;27;19930;-72
2023/01/10 14:47:37;;;;;;;;;;;;;;;;;;5171685;27;19932;-72
2023/01/10 14:50:03;;;;;;;;;;;;;;;;;;5171404;27;19930;-72
2023/01/10 14:52:29;;;;;;;;;;;;;;;;;;5171434;27;19923;-72
2023/01/10 14:54:55;;;;;;;;;;;;;;;;;;5153606;27;19950;-71
2023/01/10 14:57:21;;;;;;;;;;;;;;;;;;5170353;27;19926;-73
2023/01/10 14:59:48;;;;;;;;;;;;;;;;;;5172065;27;20492;-72
2023/01/10 15:02:16;;;;;;;;;;;;;;;;;;5159396;27;19930;-73
2023/01/10 15:04:42;;;;;;;;;;;;;;;;;;5177285;27;19943;-72
2023/01/10 15:07:08;;;;;;;;;;;;;;;;;;5174357;27;19975;-74
2023/01/10 15:09:34;;;;;;;;;;;;;;;;;;5185258;27;19943;-75
2023/01/10 15:12:00;;;;;;;;;;;;;;;;;;5182685;27;19943;-74
2023/01/10 15:14:26;;;;;;;;;;;;;;;;;;5178449;27;19929;-73
2023/01/10 15:16:52;;;;;;;;;;;;;;;;;;5174633;27;20206;-73
2023/01/10 15:19:17;;;;;;;;;;;;;;;;;;5176458;27;19940;-73
2023/01/10 15:21:43;;;;;;;;;;;;;;;;;;5161109;27;19930;-73
2023/01/10 15:24:09;;;;;;;;;;;;;;;;;;5168493;27;20432;-73
2023/01/10 15:26:35;;;;;;;;;;;;;;;;;;5164768;27;20006;-73
2023/01/10 15:29:01;;;;;;;;;;;;;;;;;;5163120;27;19922;-73
2023/01/10 15:31:27;;;;;;;;;;;;;;;;;;5176886;27;19923;-74
2023/01/10 15:33:55;;;;;;;;;;;;;;;;;;5169980;27;19930;-74
2023/01/10 15:36:21;;;;;;;;;;;;;;;;;;5173514;27;19922;-74
2023/01/10 15:38:47;;;;;;;;;;;;;;;;;;5169355;27;20413;-74
2023/01/10 15:41:13;;;;;;;;;;;;;;;;;;5172766;27;19922;-74
2023/01/10 15:43:39;;;;;;;;;;;;;;;;;;5178702;27;20692;-73
2023/01/10 15:46:05;;;;;;;;;;;;;;;;;;5172037;27;20321;-73
2023/01/10 15:48:32;;;;;;;;;;;;;;;;;;5156587;27;19923;-73
2023/01/10 15:51:07;;;;;;;;;;;;;;;;;;5179112;27;20379;-73
2023/01/10 15:53:33;;;;;;;;;;;;;;;;;;5176674;27;20375;-73
2023/01/10 15:55:59;;;;;;;;;;;;;;;;;;5181316;27;19929;-73
2023/01/10 15:58:25;;;;;;;;;;;;;;;;;;5184955;27;19929;-74
2023/01/10 16:00:50;;;;;;;;;;;;;;;;;;5180537;27;19978;-75
2023/01/10 16:03:16;;;;;;;;;;;;;;;;;;5178242;27;19923;-75
2023/01/10 16:05:42;;;;;;;;;;;;;;;;;;5154751;27;19927;-74
2023/01/10 16:08:08;;;;;;;;;;;;;;;;;;5176400;27;20274;-75
2023/01/10 16:10:36;;;;;;;;;;;;;;;;;;5177023;27;19929;-75
2023/01/10 16:15:46;;;;;;;;;;;;;;;;;;5156031;27;20129;-71
2023/01/10 16:18:12;;;;;;;;;;;;;;;;;;5171569;27;20272;-71
2023/01/10 16:20:38;;;;;;;;;;;;;;;;;;5155293;27;20261;-71
2023/01/10 16:23:05;;;;;;;;;;;;;;;;;;5136473;27;20015;-72
2023/01/10 16:25:31;;;;;;;;;;;;;;;;;;5173757;27;20287;-72
2023/01/10 16:27:57;;;;;;;;;;;;;;;;;;5154281;27;19922;-71
2023/01/10 16:30:23;;;;;;;;;;;;;;;;;;5163860;27;19923;-71
2023/01/10 16:32:49;;;;;;;;;;;;;;;;;;5170581;27;20313;-72
2023/01/10 16:35:15;;;;;;;;;;;;;;;;;;5156042;27;19923;-72
2023/01/10 16:37:42;;;;;;;;;;;;;;;;;;5172886;27;19934;-72
2023/01/10 16:40:07;;;;;;;;;;;;;;;;;;5172978;27;20029;-72
2023/01/10 16:45:18;;;;;;;;;;;;;;;;;;5165610;27;19923;-73
2023/01/10 16:47:45;;;;;;;;;;;;;;;;;;5166875;27;19967;-73
2023/01/10 16:50:11;;;;;;;;;;;;;;;;;;5170268;27;19930;-72
2023/01/10 16:52:37;;;;;;;;;;;;;;;;;;5172450;27;19923;-73
2023/01/10 16:55:03;;;;;;;;;;;;;;;;;;5165849;27;19952;-74
2023/01/10 16:57:29;;;;;;;;;;;;;;;;;;5173834;27;19945;-74
2023/01/10 16:59:55;;;;;;;;;;;;;;;;;;5168734;27;20374;-73